createdAt,value
2017-06-04T00:00:15.313Z,11.10
2017-06-04T00:02:42.827Z,10.50
2017-06-04T00:05:09.267Z,10.20
2017-06-04T00:07:35.679Z,10.30
2017-06-04T00:10:02.836Z,9.70
2017-06-04T00:12:29.244Z,10.13
2017-06-04T00:14:55.664Z,9.93
2017-06-04T00:17:22.820Z,10.30
2017-06-04T00:19:49.261Z,10.30
2017-06-04T00:22:16.409Z,9.93
2017-06-04T00:24:42.845Z,10.10
2017-06-04T00:27:24.189Z,9.50
2017-06-04T00:29:51.258Z,9.65
2017-06-04T00:32:17.688Z,9.60
2017-06-04T00:34:44.239Z,10.48
2017-06-04T00:37:10.758Z,10.50
2017-06-04T00:39:37.925Z,9.97
2017-06-04T00:42:05.086Z,10.40
2017-06-04T00:44:32.235Z,10.90
2017-06-04T00:46:59.330Z,9.85
2017-06-04T00:49:26.519Z,9.90
2017-06-04T00:51:52.932Z,9.88
2017-06-04T00:54:19.566Z,10.45
2017-06-04T00:56:46.088Z,10.00
2017-06-04T00:59:12.646Z,10.63
2017-06-04T01:01:39.089Z,9.95
2017-06-04T01:04:06.405Z,9.70
2017-06-04T01:06:32.935Z,9.93
2017-06-04T01:08:59.394Z,9.90
2017-06-04T01:11:26.368Z,10.30
2017-06-04T01:13:52.795Z,10.10
2017-06-04T01:16:19.974Z,10.20
2017-06-04T01:18:47.196Z,10.05
2017-06-04T01:21:13.631Z,11.17
2017-06-04T01:23:40.080Z,10.20
2017-06-04T01:26:06.523Z,9.60
2017-06-04T01:28:33.712Z,10.00
2017-06-04T01:31:00.221Z,10.10
2017-06-04T01:33:26.684Z,10.10
2017-06-04T01:35:53.274Z,10.52
2017-06-04T01:38:19.723Z,10.20
2017-06-04T01:40:46.927Z,10.17
2017-06-04T01:43:13.402Z,10.07
2017-06-04T01:45:39.980Z,11.00
2017-06-04T01:48:06.989Z,10.48
2017-06-04T01:50:33.443Z,11.00
2017-06-04T01:52:59.898Z,10.90
2017-06-04T01:55:26.339Z,12.00
2017-06-04T01:57:53.508Z,11.32
2017-06-04T02:00:20.681Z,10.90
2017-06-04T02:02:47.852Z,11.30
2017-06-04T02:05:15.013Z,11.43
2017-06-04T02:07:41.452Z,11.70
2017-06-04T02:10:07.877Z,12.18
2017-06-04T02:12:34.297Z,12.43
2017-06-04T02:15:01.481Z,11.80
2017-06-04T02:17:27.936Z,12.20
2017-06-04T02:19:54.350Z,12.00
2017-06-04T02:22:20.850Z,11.80
2017-06-04T02:24:47.288Z,12.00
2017-06-04T02:27:14.581Z,12.60
2017-06-04T02:29:41.007Z,12.83
2017-06-04T02:32:07.463Z,11.70
2017-06-04T02:34:34.513Z,11.83
2017-06-04T02:37:00.955Z,12.52
2017-06-04T02:39:27.461Z,13.25
2017-06-04T02:41:54.633Z,13.00
2017-06-04T02:44:21.069Z,13.32
2017-06-04T02:46:48.258Z,13.38
2017-06-04T02:49:15.424Z,13.93
2017-06-04T02:51:42.605Z,13.60
2017-06-04T02:54:09.773Z,13.80
2017-06-04T02:56:36.961Z,13.75
2017-06-04T02:59:04.179Z,13.80
2017-06-04T03:01:30.617Z,13.85
2017-06-04T03:03:57.154Z,13.80
2017-06-04T03:06:23.615Z,14.43
2017-06-04T03:08:50.048Z,14.65
2017-06-04T03:11:17.234Z,14.90
2017-06-04T03:13:43.709Z,14.73
2017-06-04T03:16:10.394Z,14.65
2017-06-04T03:18:36.909Z,14.32
2017-06-04T03:21:03.468Z,14.05
2017-06-04T03:23:29.910Z,14.80
2017-06-04T03:25:57.100Z,13.53
2017-06-04T03:28:23.567Z,14.70
2017-06-04T03:30:50.110Z,14.77
2017-06-04T03:33:16.571Z,14.65
2017-06-04T03:35:43.039Z,14.70
2017-06-04T03:38:09.464Z,15.27
2017-06-04T03:40:36.643Z,14.50
2017-06-04T03:43:03.784Z,15.30
2017-06-04T03:45:30.588Z,14.80
2017-06-04T03:47:57.000Z,14.30
2017-06-04T03:50:23.449Z,15.15
2017-06-04T03:52:50.269Z,14.40
2017-06-04T03:55:16.718Z,15.10
2017-06-04T03:57:43.168Z,14.75
2017-06-04T04:00:09.619Z,14.30
2017-06-04T04:02:36.806Z,13.62
2017-06-04T04:05:03.260Z,13.48
2017-06-04T04:07:29.687Z,12.45
2017-06-04T04:09:56.147Z,7.43
2017-06-04T04:12:23.318Z,6.80
2017-06-04T04:14:50.546Z,6.95
2017-06-04T04:17:16.970Z,6.20
2017-06-04T04:19:43.529Z,6.43
2017-06-04T04:22:09.949Z,6.20
2017-06-04T04:24:36.377Z,6.30
2017-06-04T04:27:02.800Z,7.00
2017-06-04T04:29:29.251Z,6.80
2017-06-04T04:31:55.688Z,6.30
2017-06-04T04:34:22.855Z,6.60
2017-06-04T04:36:49.332Z,6.10
2017-06-04T04:39:15.809Z,6.15
2017-06-04T04:41:42.247Z,6.20
2017-06-04T04:44:08.670Z,6.22
2017-06-04T04:46:35.093Z,6.37
2017-06-04T04:49:01.616Z,6.60
2017-06-04T04:51:28.358Z,6.28
2017-06-04T04:53:55.530Z,9.40
2017-06-04T04:56:22.701Z,7.25
2017-06-04T04:58:49.166Z,7.10
2017-06-04T05:01:16.334Z,7.97
2017-06-04T05:03:42.805Z,7.68
2017-06-04T05:06:09.258Z,8.30
2017-06-04T05:08:36.477Z,7.25
2017-06-04T05:11:02.994Z,6.90
2017-06-04T05:13:29.432Z,6.72
2017-06-04T05:15:56.669Z,6.50
2017-06-04T05:18:23.100Z,44.33
2017-06-04T05:20:51.601Z,21.70
2017-06-04T05:23:18.138Z,47.35
2017-06-04T05:25:45.627Z,13.05
2017-06-04T05:28:12.137Z,14.00
2017-06-04T05:30:38.763Z,6.32
2017-06-04T05:33:05.174Z,5.97
2017-06-04T05:35:32.318Z,5.32
2017-06-04T05:37:58.778Z,5.28
2017-06-04T05:40:25.235Z,5.10
2017-06-04T05:42:51.691Z,5.25
2017-06-04T05:45:18.143Z,5.60
2017-06-04T05:47:44.645Z,5.30
2017-06-04T05:50:11.139Z,5.57
2017-06-04T05:52:37.662Z,5.57
2017-06-04T05:55:04.128Z,5.57
2017-06-04T05:57:30.582Z,5.90
2017-06-04T05:59:57.130Z,5.97
2017-06-04T06:02:23.687Z,5.72
2017-06-04T06:04:50.149Z,6.30
2017-06-04T06:07:16.594Z,7.00
2017-06-04T06:09:43.873Z,6.40
2017-06-04T06:12:10.331Z,7.50
2017-06-04T06:14:36.751Z,8.30
2017-06-04T06:17:03.343Z,8.35
2017-06-04T06:19:30.088Z,14.98
2017-06-04T06:21:57.284Z,15.23
2017-06-04T06:24:23.716Z,11.88
2017-06-04T06:26:50.925Z,8.40
2017-06-04T06:29:17.317Z,7.60
2017-06-04T06:31:43.811Z,8.00
2017-06-04T06:34:11.093Z,8.93
2017-06-04T06:36:37.612Z,7.80
2017-06-04T06:39:04.169Z,8.60
2017-06-04T06:41:31.295Z,7.60
2017-06-04T06:43:57.838Z,8.50
2017-06-04T06:46:24.350Z,8.35
2017-06-04T06:48:50.846Z,7.55
2017-06-04T06:51:18.008Z,7.90
2017-06-04T06:53:45.299Z,7.90
2017-06-04T06:56:12.265Z,7.07
2017-06-04T06:58:39.460Z,7.40
2017-06-04T07:01:05.931Z,7.60
2017-06-04T07:03:32.386Z,7.15
2017-06-04T07:05:58.908Z,6.60
2017-06-04T07:08:25.352Z,6.70
2017-06-04T07:10:52.569Z,6.72
2017-06-04T07:13:19.037Z,6.62
2017-06-04T07:15:45.653Z,6.97
2017-06-04T07:18:12.113Z,7.20
2017-06-04T07:20:38.609Z,6.70
2017-06-04T07:23:05.062Z,7.33
2017-06-04T07:25:31.581Z,7.30
2017-06-04T07:27:58.139Z,7.70
2017-06-04T07:30:24.654Z,7.97
2017-06-04T07:32:51.207Z,8.10
2017-06-04T07:35:17.815Z,8.50
2017-06-04T07:37:44.288Z,9.40
2017-06-04T07:40:10.774Z,8.50
2017-06-04T07:42:37.391Z,8.10
2017-06-04T07:45:03.862Z,7.80
2017-06-04T07:47:30.360Z,8.50
2017-06-04T07:49:56.822Z,8.15
2017-06-04T07:52:23.243Z,7.20
2017-06-04T07:54:49.707Z,7.40
2017-06-04T07:57:16.125Z,7.60
2017-06-04T07:59:42.683Z,7.40
2017-06-04T08:02:09.205Z,5.25
2017-06-04T08:04:35.800Z,4.03
2017-06-04T08:07:02.358Z,3.50
2017-06-04T08:09:28.918Z,3.63
2017-06-04T08:11:55.780Z,3.63
2017-06-04T08:14:22.340Z,3.87
2017-06-04T08:16:48.824Z,3.75
2017-06-04T08:19:15.255Z,3.70
2017-06-04T08:21:41.811Z,3.50
2017-06-04T08:24:08.303Z,3.70
2017-06-04T08:26:34.830Z,3.67
2017-06-04T08:29:01.612Z,3.30
2017-06-04T08:31:28.104Z,3.87
2017-06-04T08:33:54.706Z,3.85
2017-06-04T08:36:21.159Z,4.60
2017-06-04T08:38:47.721Z,4.22
2017-06-04T08:41:14.182Z,4.10
2017-06-04T08:43:40.759Z,4.50
2017-06-04T08:46:07.498Z,3.80
2017-06-04T08:48:34.221Z,4.10
2017-06-04T08:51:00.692Z,4.93
2017-06-04T08:53:27.975Z,7.73
2017-06-04T08:55:55.223Z,6.57
2017-06-04T08:58:36.973Z,6.00
2017-06-04T09:01:03.524Z,7.82
2017-06-04T09:03:29.993Z,6.20
2017-06-04T09:05:56.449Z,7.20
2017-06-04T09:08:22.869Z,8.50
2017-06-04T09:10:50.082Z,8.40
2017-06-04T09:13:16.671Z,8.60
2017-06-04T09:15:43.177Z,8.80
2017-06-04T09:18:10.681Z,9.10
2017-06-04T09:20:38.073Z,9.57
2017-06-04T09:23:05.205Z,9.20
2017-06-04T09:25:31.762Z,9.48
2017-06-04T09:27:58.199Z,4.30
2017-06-04T09:30:25.384Z,3.60
2017-06-04T09:32:59.934Z,3.00
2017-06-04T09:35:40.950Z,3.60
2017-06-04T09:38:18.316Z,3.80
2017-06-04T09:44:07.299Z,5.00
2017-06-04T09:49:27.695Z,4.30
2017-06-04T09:51:54.131Z,4.57
2017-06-04T09:54:21.415Z,4.90
2017-06-04T10:28:31.269Z,7.30
2017-06-04T10:59:47.522Z,4.70
2017-06-04T11:02:14.389Z,5.35
2017-06-04T13:46:13.502Z,5.10
2017-06-04T13:48:40.798Z,4.97
2017-06-04T13:51:07.228Z,5.27
2017-06-04T13:53:33.778Z,5.18
2017-06-04T13:56:00.266Z,4.80
2017-06-04T13:58:26.724Z,4.90
2017-06-04T14:00:53.588Z,4.80
2017-06-04T14:03:20.124Z,4.90
2017-06-04T14:05:46.640Z,4.90
2017-06-04T14:08:13.069Z,5.10
2017-06-04T14:10:39.505Z,4.72
2017-06-04T14:13:05.956Z,5.10
2017-06-04T14:15:33.244Z,5.60
2017-06-04T14:17:59.699Z,5.78
2017-06-04T14:20:26.501Z,5.75
2017-06-04T14:22:52.977Z,5.70
2017-06-04T14:25:19.434Z,5.70
2017-06-04T14:27:46.063Z,5.40
2017-06-04T14:30:12.501Z,6.00
2017-06-04T14:32:39.050Z,5.50
2017-06-04T14:35:06.287Z,5.30
2017-06-04T14:37:33.191Z,5.10
2017-06-04T14:39:59.810Z,5.10
2017-06-04T14:42:26.246Z,5.40
2017-06-04T14:44:52.763Z,5.10
2017-06-04T14:47:19.197Z,5.20
2017-06-04T14:49:46.495Z,4.70
2017-06-04T14:52:13.004Z,4.50
2017-06-04T14:54:39.446Z,4.60
2017-06-04T14:57:05.966Z,4.50
2017-06-04T14:59:32.502Z,4.50
2017-06-04T15:01:59.707Z,3.95
2017-06-04T15:04:26.133Z,3.80
2017-06-04T15:06:53.400Z,4.05
2017-06-04T15:09:20.700Z,5.68
2017-06-04T15:11:47.221Z,3.40
2017-06-04T15:14:13.919Z,3.47
2017-06-04T15:16:40.553Z,3.17
2017-06-04T15:19:07.240Z,3.20
2017-06-04T15:21:33.703Z,3.62
2017-06-04T15:24:00.358Z,3.00
2017-06-04T15:26:26.915Z,2.95
2017-06-04T15:28:53.481Z,2.65
2017-06-04T15:31:20.338Z,2.70
2017-06-04T15:33:46.825Z,2.70
2017-06-04T15:36:13.277Z,2.85
2017-06-04T15:38:39.842Z,2.70
2017-06-04T15:41:06.307Z,2.90
2017-06-04T15:43:32.796Z,2.90
2017-06-04T15:45:59.280Z,2.80
2017-06-04T15:48:25.840Z,2.90
2017-06-04T15:50:52.494Z,2.47
2017-06-04T15:53:19.831Z,2.80
2017-06-04T15:55:46.271Z,2.90
2017-06-04T15:58:12.701Z,2.75
2017-06-04T16:00:39.116Z,2.90
2017-06-04T16:03:05.764Z,2.92
2017-06-04T16:05:32.261Z,2.72
2017-06-04T16:07:59.021Z,2.70
2017-06-04T16:10:25.477Z,3.05
2017-06-04T16:12:52.011Z,2.80
2017-06-04T16:15:18.831Z,2.60
2017-06-04T16:17:45.259Z,2.80
2017-06-04T16:20:11.795Z,2.90
2017-06-04T16:22:39.187Z,2.90
2017-06-04T16:25:07.263Z,2.45
2017-06-04T16:27:34.461Z,2.72
2017-06-04T16:30:01.014Z,2.70
2017-06-04T16:32:27.558Z,2.78
2017-06-04T16:34:54.742Z,2.75
2017-06-04T16:37:21.250Z,2.90
2017-06-04T16:39:47.766Z,3.20
2017-06-04T16:42:14.599Z,2.70
2017-06-04T16:44:41.432Z,3.00
2017-06-04T16:47:07.946Z,2.55
2017-06-04T16:49:34.384Z,3.12
2017-06-04T16:52:01.656Z,5.15
2017-06-04T16:54:28.950Z,2.70
2017-06-04T16:56:56.153Z,3.03
2017-06-04T16:59:22.681Z,2.90
2017-06-04T17:01:49.339Z,2.58
2017-06-04T17:04:15.797Z,2.92
2017-06-04T17:06:42.357Z,2.70
2017-06-04T17:09:09.174Z,2.90
2017-06-04T17:11:36.063Z,2.70
2017-06-04T17:14:04.139Z,2.90
2017-06-04T17:16:30.687Z,2.70
2017-06-04T17:18:57.143Z,2.80
2017-06-04T17:21:24.671Z,2.78
2017-06-04T17:23:51.154Z,2.85
2017-06-04T17:26:17.686Z,2.92
2017-06-04T17:28:44.194Z,3.00
2017-06-04T17:31:10.802Z,3.00
2017-06-04T17:33:37.618Z,2.90
2017-06-04T17:36:04.430Z,2.80
2017-06-04T17:38:30.896Z,3.30
2017-06-04T17:40:57.880Z,2.87
2017-06-04T17:43:25.094Z,2.90
2017-06-04T17:45:51.586Z,2.92
2017-06-04T17:48:18.267Z,3.10
2017-06-04T17:50:44.804Z,2.90
2017-06-04T17:53:11.286Z,2.90
2017-06-04T17:55:37.829Z,2.92
2017-06-04T17:58:04.283Z,2.87
2017-06-04T18:00:30.839Z,3.10
2017-06-04T18:02:57.315Z,2.72
2017-06-04T18:05:23.923Z,2.80
2017-06-04T18:07:50.867Z,3.12
2017-06-04T18:10:17.511Z,2.90
2017-06-04T18:12:44.853Z,3.10
2017-06-04T18:15:11.619Z,3.35
2017-06-04T18:17:38.113Z,2.90
2017-06-04T18:20:04.834Z,3.00
2017-06-04T18:22:31.392Z,3.33
2017-06-04T18:24:57.851Z,3.28
2017-06-04T18:27:24.622Z,3.00
2017-06-04T18:29:51.682Z,3.80
2017-06-04T18:32:18.221Z,3.45
2017-06-04T18:34:44.856Z,3.45
2017-06-04T18:37:12.280Z,4.10
2017-06-04T18:39:39.654Z,3.97
2017-06-04T18:42:06.417Z,3.72
2017-06-04T18:44:32.970Z,3.20
2017-06-04T18:46:59.611Z,3.35
2017-06-04T18:49:26.324Z,3.70
2017-06-04T18:51:53.979Z,3.22
2017-06-04T18:54:20.479Z,3.47
2017-06-04T18:56:47.097Z,3.65
2017-06-04T18:59:13.707Z,3.80
2017-06-04T19:01:40.533Z,3.90
2017-06-04T19:04:07.079Z,4.10
2017-06-04T19:06:33.525Z,3.85
2017-06-04T19:09:00.210Z,3.90
2017-06-04T19:11:26.760Z,3.63
2017-06-04T19:13:53.263Z,3.70
2017-06-04T19:16:19.972Z,4.15
2017-06-04T19:18:46.659Z,3.83
2017-06-04T19:21:13.397Z,3.80
2017-06-04T19:23:40.178Z,4.28
2017-06-04T19:26:07.433Z,3.92
2017-06-04T19:28:34.114Z,4.10
2017-06-04T19:31:01.438Z,4.22
2017-06-04T19:33:28.187Z,4.45
2017-06-04T19:35:55.816Z,4.28
2017-06-04T19:38:22.380Z,4.25
2017-06-04T19:40:48.934Z,4.43
2017-06-04T19:43:15.367Z,4.45
2017-06-04T19:45:43.377Z,4.20
2017-06-04T19:48:10.046Z,3.95
2017-06-04T19:50:36.541Z,4.37
2017-06-04T19:53:03.011Z,4.37
2017-06-04T19:55:29.650Z,4.40
2017-06-04T19:57:56.973Z,4.20
2017-06-04T20:00:24.374Z,3.83
2017-06-04T20:02:51.163Z,4.47
2017-06-04T20:05:18.405Z,4.40
2017-06-04T20:07:45.754Z,4.47
2017-06-04T20:10:13.250Z,4.60
2017-06-04T20:12:40.533Z,4.70
2017-06-04T20:15:07.198Z,5.18
2017-06-04T20:17:34.098Z,4.60
2017-06-04T20:20:01.468Z,4.80
2017-06-04T20:22:28.608Z,4.93
2017-06-04T20:24:55.359Z,5.07
2017-06-04T20:27:21.931Z,5.15
2017-06-04T20:29:48.606Z,5.40
2017-06-04T20:32:15.306Z,5.22
2017-06-04T20:34:41.862Z,5.35
2017-06-04T20:37:08.326Z,4.70
2017-06-04T20:39:34.901Z,5.30
2017-06-04T20:42:02.301Z,4.60
2017-06-04T20:44:28.860Z,5.35
2017-06-04T20:46:57.230Z,5.03
2017-06-04T20:49:23.720Z,5.00
2017-06-04T20:51:50.175Z,5.70
2017-06-04T20:54:16.595Z,5.30
2017-06-04T20:56:43.278Z,5.60
2017-06-04T20:59:10.807Z,5.60
2017-06-04T21:01:37.308Z,5.43
2017-06-04T21:04:04.506Z,5.60
2017-06-04T21:06:31.055Z,5.32
2017-06-04T21:08:57.532Z,5.40
2017-06-04T21:11:24.786Z,5.53
2017-06-04T21:13:51.997Z,5.00
2017-06-04T21:16:18.521Z,5.80
2017-06-04T21:18:45.234Z,6.80
2017-06-04T21:21:12.669Z,6.80
2017-06-04T21:24:05.601Z,6.70
2017-06-04T21:26:32.089Z,6.93
2017-06-04T21:28:58.563Z,5.85
2017-06-04T21:31:25.010Z,6.12
2017-06-04T21:33:51.442Z,8.07
2017-06-04T21:36:17.990Z,9.60
2017-06-04T21:38:44.645Z,9.02
2017-06-04T21:41:11.093Z,8.90
2017-06-04T21:43:38.223Z,7.60
2017-06-04T21:46:04.663Z,9.23
2017-06-04T21:48:31.495Z,8.80
2017-06-04T21:50:57.925Z,8.48
2017-06-04T21:53:25.100Z,7.70
2017-06-04T21:55:52.266Z,6.70
2017-06-04T21:58:19.463Z,6.37
2017-06-04T22:00:45.903Z,6.18
2017-06-04T22:03:13.073Z,6.28
2017-06-04T22:05:40.263Z,6.35
2017-06-04T22:08:06.714Z,6.10
2017-06-04T22:10:33.942Z,6.50
2017-06-04T22:13:00.356Z,6.80
2017-06-04T22:15:26.763Z,6.80
2017-06-04T22:17:53.594Z,6.93
2017-06-04T22:20:20.126Z,7.50
2017-06-04T22:22:46.535Z,7.30
2017-06-04T22:25:12.968Z,7.22
2017-06-04T22:27:39.416Z,7.43
2017-06-04T22:30:05.825Z,6.57
2017-06-04T22:32:33.013Z,7.10
2017-06-04T22:35:00.177Z,7.10
2017-06-04T22:37:27.372Z,7.45
2017-06-04T22:39:54.067Z,7.10
2017-06-04T22:42:20.501Z,7.10
2017-06-04T22:44:46.941Z,6.65
2017-06-04T22:47:13.393Z,7.20
2017-06-04T22:49:40.032Z,7.43
2017-06-04T22:52:07.194Z,7.22
2017-06-04T22:54:34.358Z,7.65
2017-06-04T22:57:00.854Z,7.07
2017-06-04T22:59:27.263Z,7.70
2017-06-04T23:01:53.683Z,7.20
2017-06-04T23:04:20.087Z,7.10
2017-06-04T23:06:46.536Z,7.40
2017-06-04T23:09:13.016Z,7.53
2017-06-04T23:11:40.169Z,10.23
2017-06-04T23:14:07.359Z,8.70
2017-06-04T23:16:41.504Z,8.45
2017-06-04T23:19:07.964Z,8.40
2017-06-04T23:21:34.430Z,8.40
2017-06-04T23:24:01.076Z,9.05
2017-06-04T23:26:27.517Z,8.00
2017-06-04T23:28:54.686Z,7.30
2017-06-04T23:31:21.941Z,7.30
2017-06-04T23:33:49.329Z,7.30
2017-06-04T23:36:16.447Z,6.62
2017-06-04T23:38:42.874Z,7.10
2017-06-04T23:41:09.324Z,7.20
2017-06-04T23:43:36.611Z,6.95
2017-06-04T23:46:03.035Z,7.07
2017-06-04T23:48:29.579Z,6.80
2017-06-04T23:50:56.083Z,7.03
2017-06-04T23:53:22.516Z,6.90
2017-06-04T23:55:49.814Z,7.10
2017-06-04T23:58:16.273Z,6.80
